Time,TemperatureF,DewpointF,PressureIn,WindDirection,WindDirectionDegrees,WindSpeedMPH,WindSpeedGustMPH,Humidity,HourlyPrecipIn,Conditions,Clouds,dailyrainin,SolarRadiationWatts/m^2,SoftwareType,DateUTC
2013-05-15 00:01:00,72.4,54.3,29.94,South,190,6.0,11.0,53,0.00,,CLR,0.00,0.00,VWS V14.01,2013-05-15 05:01:00,
2013-05-15 00:06:00,72.2,54.1,29.94,South,177,3.0,3.0,53,0.00,,CLR,0.00,0.00,VWS V14.01,2013-05-15 05:06:00,
2013-05-15 00:11:00,72.0,54.0,29.94,SSW,209,0.0,0.0,53,0.00,,CLR,0.00,0.00,VWS V14.01,2013-05-15 05:11:00,
2013-05-15 00:16:00,71.8,53.8,29.94,South,188,0.0,0.0,53,0.00,,CLR,0.00,0.00,VWS V14.01,2013-05-15 05:16:00,
2013-05-15 00:21:00,71.7,53.7,29.94,SSE,167,1.0,5.0,53,0.00,,CLR,0.00,0.00,VWS V14.01,2013-05-15 05:21:00,
2013-05-15 00:26:00,71.7,54.2,29.94,South,180,0.0,2.0,54,0.00,,CLR,0.00,0.00,VWS V14.01,2013-05-15 05:26:00,
2013-05-15 00:31:00,71.5,54.0,29.94,South,174,0.0,0.0,54,0.00,,CLR,0.00,0.00,VWS V14.01,2013-05-15 05:31:00,
2013-05-15 00:36:00,71.3,53.3,29.94,South,182,0.0,0.0,53,0.00,,CLR,0.00,0.00,VWS V14.01,2013-05-15 05:36:00,
2013-05-15 00:41:00,71.3,53.8,29.94,South,179,0.0,7.0,54,0.00,,CLR,0.00,0.00,VWS V14.01,2013-05-15 05:41:00,
2013-05-15 00:46:00,71.2,53.2,29.94,South,179,0.0,0.0,53,0.00,,CLR,0.00,0.00,VWS V14.01,2013-05-15 05:46:00,
2013-05-15 00:51:00,71.0,53.0,29.94,South,170,0.0,3.0,53,0.00,,CLR,0.00,0.00,VWS V14.01,2013-05-15 05:51:00,
2013-05-15 00:56:00,71.0,53.0,29.94,South,179,0.0,0.0,53,0.00,,CLR,0.00,0.00,VWS V14.01,2013-05-15 05:56:00,
2013-05-15 01:01:00,70.8,52.8,29.94,South,184,0.0,0.0,53,0.00,,CLR,0.00,0.00,VWS V14.01,2013-05-15 06:01:00,
2013-05-15 01:06:00,70.8,53.3,29.94,South,173,0.0,0.0,54,0.00,,CLR,0.00,0.00,VWS V14.01,2013-05-15 06:06:00,
2013-05-15 01:11:00,70.6,53.2,29.94,South,179,0.0,0.0,54,0.00,,CLR,0.00,0.00,VWS V14.01,2013-05-15 06:11:00,
2013-05-15 01:16:00,70.5,53.1,29.94,South,187,0.0,3.0,54,0.00,,CLR,0.00,0.00,VWS V14.01,2013-05-15 06:16:00,
2013-05-15 01:21:00,70.3,52.9,29.94,South,176,0.0,9.0,54,0.00,,CLR,0.00,0.00,VWS V14.01,2013-05-15 06:21:00,
2013-05-15 01:26:00,70.3,52.9,29.94,SSW,207,0.0,3.0,54,0.00,,CLR,0.00,0.00,VWS V14.01,2013-05-15 06:26:00,
2013-05-15 01:31:00,70.1,52.7,29.94,South,182,4.0,4.0,54,0.00,,CLR,0.00,0.00,VWS V14.01,2013-05-15 06:31:00,
2013-05-15 01:36:00,70.1,52.7,29.94,SSE,167,3.0,5.0,54,0.00,,CLR,0.00,0.00,VWS V14.01,2013-05-15 06:36:00,
2013-05-15 01:41:00,70.0,52.6,29.94,South,185,3.0,9.0,54,0.00,,CLR,0.00,0.00,VWS V14.01,2013-05-15 06:41:00,
2013-05-15 01:46:00,70.0,52.6,29.94,South,188,1.0,10.0,54,0.00,,CLR,0.00,0.00,VWS V14.01,2013-05-15 06:46:00,
2013-05-15 01:51:00,70.0,52.6,29.94,South,191,11.0,11.0,54,0.00,,CLR,0.00,0.00,VWS V14.01,2013-05-15 06:51:00,
2013-05-15 01:56:00,70.0,52.6,29.94,SSW,209,0.0,1.0,54,0.00,,CLR,0.00,0.00,VWS V14.01,2013-05-15 06:56:00,
2013-05-15 02:01:00,70.0,52.6,29.94,SSW,207,0.0,1.0,54,0.00,,CLR,0.00,0.00,VWS V14.01,2013-05-15 07:01:00,
2013-05-15 02:06:00,70.0,52.6,29.94,South,190,4.0,10.0,54,0.00,,CLR,0.00,0.00,VWS V14.01,2013-05-15 07:06:00,
2013-05-15 02:11:00,70.0,52.6,29.94,SSW,193,0.0,9.0,54,0.00,,CLR,0.00,0.00,VWS V14.01,2013-05-15 07:11:00,
2013-05-15 02:16:00,69.8,52.4,29.94,South,184,1.0,9.0,54,0.00,,CLR,0.00,0.00,VWS V14.01,2013-05-15 07:16:00,
2013-05-15 02:21:00,69.8,52.4,29.94,SSE,166,2.0,5.0,54,0.00,,CLR,0.00,0.00,VWS V14.01,2013-05-15 07:21:00,
2013-05-15 02:26:00,69.8,52.9,29.94,South,188,4.0,4.0,55,0.00,,CLR,0.00,0.00,VWS V14.01,2013-05-15 07:26:00,
2013-05-15 02:31:00,69.6,52.7,29.93,South,182,0.0,0.0,55,0.00,,CLR,0.00,0.00,VWS V14.01,2013-05-15 07:31:00,
2013-05-15 02:36:00,69.6,52.7,29.93,SSW,192,0.0,6.0,55,0.00,,CLR,0.00,0.00,VWS V14.01,2013-05-15 07:36:00,
2013-05-15 02:41:00,69.4,52.5,29.93,SSE,165,5.0,7.0,55,0.00,,CLR,0.00,0.00,VWS V14.01,2013-05-15 07:41:00,
2013-05-15 02:46:00,69.4,53.0,29.93,South,169,0.0,0.0,56,0.00,,CLR,0.00,0.00,VWS V14.01,2013-05-15 07:46:00,
2013-05-15 02:51:00,69.4,53.0,29.93,SSW,211,0.0,0.0,56,0.00,,CLR,0.00,0.00,VWS V14.01,2013-05-15 07:51:00,
2013-05-15 02:56:00,69.3,53.0,29.93,South,189,0.0,0.0,56,0.00,,CLR,0.00,0.00,VWS V14.01,2013-05-15 07:56:00,
2013-05-15 03:01:00,69.3,53.4,29.93,SSW,196,0.0,4.0,57,0.00,,CLR,0.00,0.00,VWS V14.01,2013-05-15 08:01:00,
2013-05-15 03:06:00,69.1,53.2,29.93,SSE,164,0.0,0.0,57,0.00,,CLR,0.00,0.00,VWS V14.01,2013-05-15 08:06:00,
2013-05-15 03:11:00,69.1,53.2,29.93,South,170,0.0,2.0,57,0.00,,CLR,0.00,0.00,VWS V14.01,2013-05-15 08:11:00,
2013-05-15 03:16:00,68.9,53.5,29.92,South,171,0.0,0.0,58,0.00,,CLR,0.00,0.00,VWS V14.01,2013-05-15 08:16:00,
2013-05-15 03:21:00,68.9,53.5,29.92,South,186,0.0,0.0,58,0.00,,CLR,0.00,0.00,VWS V14.01,2013-05-15 08:21:00,
2013-05-15 03:26:00,68.8,53.9,29.92,SSW,200,5.0,10.0,59,0.00,,CLR,0.00,0.00,VWS V14.01,2013-05-15 08:26:00,
2013-05-15 03:31:00,68.8,53.9,29.92,South,189,0.0,0.0,59,0.00,,CLR,0.00,0.00,VWS V14.01,2013-05-15 08:31:00,
2013-05-15 03:36:00,68.6,54.2,29.92,South,180,5.0,5.0,60,0.00,,CLR,0.00,0.00,VWS V14.01,2013-05-15 08:36:00,
2013-05-15 03:41:00,68.6,54.2,29.92,South,172,5.0,5.0,60,0.00,,CLR,0.00,0.00,VWS V14.01,2013-05-15 08:41:00,
2013-05-15 03:46:00,68.4,54.0,29.92,South,173,0.0,2.0,60,0.00,,CLR,0.00,0.00,VWS V14.01,2013-05-15 08:46:00,
2013-05-15 03:51:00,68.4,54.4,29.92,SSW,196,0.0,0.0,61,0.00,,CLR,0.00,0.00,VWS V14.01,2013-05-15 08:51:00,
2013-05-15 03:56:00,68.3,54.8,29.92,South,189,3.0,3.0,62,0.00,,CLR,0.00,0.00,VWS V14.01,2013-05-15 08:56:00,
2013-05-15 04:01:00,68.3,54.8,29.92,South,182,2.0,2.0,62,0.00,,CLR,0.00,0.00,VWS V14.01,2013-05-15 09:01:00,
2013-05-15 04:06:00,68.3,55.2,29.92,South,189,2.0,2.0,63,0.00,,CLR,0.00,0.00,VWS V14.01,2013-05-15 09:06:00,
2013-05-15 04:11:00,68.3,55.7,29.92,South,176,2.0,4.0,64,0.00,,CLR,0.00,0.00,VWS V14.01,2013-05-15 09:11:00,
2013-05-15 04:16:00,68.1,55.5,29.92,South,185,1.0,5.0,64,0.00,,CLR,0.00,0.00,VWS V14.01,2013-05-15 09:16:00,
2013-05-15 04:21:00,68.1,55.5,29.92,South,169,5.0,5.0,64,0.00,,CLR,0.00,0.00,VWS V14.01,2013-05-15 09:21:00,
2013-05-15 04:26:00,68.1,55.9,29.92,South,184,5.0,5.0,65,0.00,,CLR,0.00,0.00,VWS V14.01,2013-05-15 09:26:00,
2013-05-15 04:31:00,68.1,56.3,29.92,South,182,0.0,0.0,66,0.00,,CLR,0.00,0.00,VWS V14.01,2013-05-15 09:31:00,
2013-05-15 04:36:00,68.1,56.3,29.92,South,176,0.0,0.0,66,0.00,,CLR,0.00,0.00,VWS V14.01,2013-05-15 09:36:00,
2013-05-15 04:41:00,68.1,56.7,29.92,South,182,0.0,0.0,67,0.00,,CLR,0.00,0.00,VWS V14.01,2013-05-15 09:41:00,
2013-05-15 04:45:00,68.1,56.7,29.92,South,180,4.0,4.0,67,0.00,,CLR,0.00,0.00,VWS V14.01,2013-05-15 09:45:00,
2013-05-15 04:50:00,68.1,57.2,29.92,SSW,194,4.0,4.0,68,0.00,,CLR,0.00,0.00,VWS V14.01,2013-05-15 09:50:00,
2013-05-15 04:55:00,68.1,57.2,29.92,South,187,4.0,4.0,68,0.00,,CLR,0.00,0.00,VWS V14.01,2013-05-15 09:55:00,
2013-05-15 05:00:00,68.1,57.6,29.92,South,177,3.0,3.0,69,0.00,,CLR,0.00,0.00,VWS V14.01,2013-05-15 10:00:00,
2013-05-15 05:05:00,68.1,57.6,29.92,South,181,0.0,0.0,69,0.00,,CLR,0.00,0.00,VWS V14.01,2013-05-15 10:05:00,
2013-05-15 05:10:00,68.1,57.6,29.92,South,184,4.0,6.0,69,0.00,,CLR,0.00,0.00,VWS V14.01,2013-05-15 10:10:00,
2013-05-15 05:15:00,68.1,57.6,29.92,South,191,6.0,6.0,69,0.00,,CLR,0.00,0.00,VWS V14.01,2013-05-15 10:15:00,
2013-05-15 05:20:00,68.1,58.0,29.92,South,173,8.0,9.0,70,0.00,,CLR,0.00,0.00,VWS V14.01,2013-05-15 10:20:00,
2013-05-15 05:25:00,68.1,58.0,29.92,South,188,5.0,6.0,70,0.00,,CLR,0.00,0.00,VWS V14.01,2013-05-15 10:25:00,
2013-05-15 05:30:00,67.9,57.8,29.92,South,188,0.0,0.0,70,0.00,,CLR,0.00,0.00,VWS V14.01,2013-05-15 10:30:00,
2013-05-15 05:35:00,67.9,58.2,29.92,South,187,0.0,11.0,71,0.00,,CLR,0.00,0.00,VWS V14.01,2013-05-15 10:35:00,
2013-05-15 05:40:00,67.9,58.5,29.92,South,189,0.0,0.0,72,0.00,,CLR,0.00,0.00,VWS V14.01,2013-05-15 10:40:00,
2013-05-15 05:45:00,67.8,58.5,29.91,South,175,0.0,10.0,72,0.00,,CLR,0.00,0.00,VWS V14.01,2013-05-15 10:45:00,
2013-05-15 05:50:00,67.8,58.8,29.91,South,182,7.0,9.0,73,0.00,,CLR,0.00,0.00,VWS V14.01,2013-05-15 10:50:00,
2013-05-15 05:55:00,67.8,58.8,29.91,South,184,6.0,6.0,73,0.00,,CLR,0.00,0.00,VWS V14.01,2013-05-15 10:55:00,
2013-05-15 06:01:00,67.6,59.0,29.91,South,176,5.0,5.0,74,0.00,,CLR,0.00,0.00,VWS V14.01,2013-05-15 11:01:00,
2013-05-15 06:06:00,67.6,59.0,29.91,South,180,6.0,6.0,74,0.00,,CLR,0.00,0.00,VWS V14.01,2013-05-15 11:06:00,
2013-05-15 06:11:00,67.6,59.4,29.91,SSW,197,4.0,7.0,75,0.00,,CLR,0.00,0.00,VWS V14.01,2013-05-15 11:11:00,
2013-05-15 06:16:00,67.6,59.4,29.92,South,183,0.0,5.0,75,0.00,,CLR,0.00,0.00,VWS V14.01,2013-05-15 11:16:00,
2013-05-15 06:21:00,67.4,59.6,29.92,South,190,4.0,10.0,76,0.00,,CLR,0.00,8.05,VWS V14.01,2013-05-15 11:21:00,
2013-05-15 06:26:00,67.4,59.6,29.92,South,170,4.0,6.0,76,0.00,,CLR,0.00,12.65,VWS V14.01,2013-05-15 11:26:00,
2013-05-15 06:31:00,67.4,60.0,29.92,South,179,8.0,8.0,77,0.00,,CLR,0.00,20.70,VWS V14.01,2013-05-15 11:31:00,
2013-05-15 06:36:00,67.3,59.8,29.92,SSW,203,0.0,7.0,77,0.00,,CLR,0.00,29.90,VWS V14.01,2013-05-15 11:36:00,
2013-05-15 06:41:00,67.4,60.0,29.92,SSE,164,9.0,9.0,77,0.00,,CLR,0.00,42.55,VWS V14.01,2013-05-15 11:41:00,
2013-05-15 06:47:00,67.4,60.3,29.92,South,184,0.0,5.0,78,0.00,,CLR,0.00,64.40,VWS V14.01,2013-05-15 11:47:00,
2013-05-15 06:52:00,67.4,60.3,29.92,South,188,0.0,8.0,78,0.00,,CLR,0.00,80.50,VWS V14.01,2013-05-15 11:52:00,
2013-05-15 06:57:00,67.6,60.5,29.92,South,171,3.0,6.0,78,0.00,,CLR,0.00,90.85,VWS V14.01,2013-05-15 11:57:00,
2013-05-15 07:02:00,67.6,60.5,29.93,South,188,3.0,10.0,78,0.00,,CLR,0.00,93.15,VWS V14.01,2013-05-15 12:02:00,
2013-05-15 07:07:00,67.8,60.7,29.93,SW,214,4.0,10.0,78,0.00,,CLR,0.00,119.60,VWS V14.01,2013-05-15 12:07:00,
2013-05-15 07:12:00,68.1,61.0,29.93,South,175,11.0,11.0,78,0.00,,CLR,0.00,104.65,VWS V14.01,2013-05-15 12:12:00,
2013-05-15 07:17:00,68.3,61.2,29.93,South,190,14.0,14.0,78,0.00,,CLR,0.00,163.30,VWS V14.01,2013-05-15 12:17:00,
2013-05-15 07:22:00,68.4,61.3,29.93,South,183,1.0,10.0,78,0.00,,CLR,0.00,175.95,VWS V14.01,2013-05-15 12:22:00,
2013-05-15 07:27:00,68.8,61.7,29.93,South,191,3.0,13.0,78,0.00,,CLR,0.00,157.55,VWS V14.01,2013-05-15 12:27:00,
2013-05-15 07:32:00,68.9,61.8,29.93,SSW,198,7.0,11.0,78,0.00,,CLR,0.00,170.20,VWS V14.01,2013-05-15 12:32:00,
2013-05-15 07:37:00,69.1,62.0,29.93,SSW,204,5.0,13.0,78,0.00,,CLR,0.00,117.30,VWS V14.01,2013-05-15 12:37:00,
2013-05-15 07:42:00,69.1,62.0,29.93,South,190,5.0,12.0,78,0.00,,CLR,0.00,202.40,VWS V14.01,2013-05-15 12:42:00,
2013-05-15 07:47:00,69.3,62.2,29.93,SSW,198,9.0,14.0,78,0.00,,CLR,0.00,147.20,VWS V14.01,2013-05-15 12:47:00,
2013-05-15 07:52:00,69.4,62.2,29.93,South,183,4.0,13.0,78,0.00,,CLR,0.00,271.40,VWS V14.01,2013-05-15 12:52:00,
2013-05-15 07:58:00,69.8,62.3,29.93,South,177,12.0,12.0,77,0.00,,CLR,0.00,280.60,VWS V14.01,2013-05-15 12:58:00,
2013-05-15 08:02:00,70.0,62.5,29.93,SW,215,7.0,13.0,77,0.00,,CLR,0.00,277.15,VWS V14.01,2013-05-15 13:02:00,
2013-05-15 08:07:00,70.1,62.6,29.93,SSW,203,5.0,13.0,77,0.00,,CLR,0.00,295.55,VWS V14.01,2013-05-15 13:07:00,
2013-05-15 08:13:00,70.5,63.0,29.93,South,173,0.0,13.0,77,0.00,,CLR,0.00,359.95,VWS V14.01,2013-05-15 13:13:00,
2013-05-15 08:18:00,71.0,63.1,29.93,South,178,12.0,12.0,76,0.00,,CLR,0.00,355.35,VWS V14.01,2013-05-15 13:18:00,
2013-05-15 08:23:00,71.0,63.1,29.93,South,189,12.0,15.0,76,0.00,,CLR,0.00,376.05,VWS V14.01,2013-05-15 13:23:00,
2013-05-15 08:28:00,71.3,63.3,29.93,SSE,165,9.0,15.0,76,0.00,,CLR,0.00,343.85,VWS V14.01,2013-05-15 13:28:00,
2013-05-15 08:33:00,71.3,63.3,29.93,WSW,243,2.0,14.0,76,0.00,,CLR,0.00,338.10,VWS V14.01,2013-05-15 13:33:00,
2013-05-15 08:38:00,71.3,63.3,29.93,SSW,196,8.0,13.0,76,0.00,,CLR,0.00,359.95,VWS V14.01,2013-05-15 13:38:00,
2013-05-15 08:43:00,71.8,63.8,29.93,SSW,202,0.0,11.0,76,0.00,,CLR,0.00,408.25,VWS V14.01,2013-05-15 13:43:00,
2013-05-15 08:48:00,72.5,64.1,29.93,South,182,9.0,13.0,75,0.00,,CLR,0.00,554.30,VWS V14.01,2013-05-15 13:48:00,
2013-05-15 08:54:00,72.7,64.3,29.93,South,189,6.0,14.0,75,0.00,,CLR,0.00,280.60,VWS V14.01,2013-05-15 13:54:00,
2013-05-15 08:59:00,72.2,63.8,29.93,SSE,163,5.0,12.0,75,0.00,,CLR,0.00,246.10,VWS V14.01,2013-05-15 13:59:00,
2013-05-15 09:04:00,71.8,63.8,29.93,SSW,196,6.0,19.0,76,0.00,,CLR,0.00,221.95,VWS V14.01,2013-05-15 14:04:00,
2013-05-15 09:09:00,71.7,64.1,29.93,South,186,10.0,10.0,77,0.00,,CLR,0.00,204.70,VWS V14.01,2013-05-15 14:09:00,
2013-05-15 09:14:00,71.5,63.9,29.93,SSW,209,6.0,13.0,77,0.00,,CLR,0.00,224.25,VWS V14.01,2013-05-15 14:14:00,
2013-05-15 09:19:00,71.7,64.5,29.93,South,180,0.0,6.0,78,0.00,,CLR,0.00,250.70,VWS V14.01,2013-05-15 14:19:00,
2013-05-15 09:24:00,71.7,64.1,29.93,South,182,5.0,14.0,77,0.00,,CLR,0.00,250.70,VWS V14.01,2013-05-15 14:24:00,
2013-05-15 09:29:00,71.5,63.9,29.93,SSE,152,10.0,15.0,77,0.00,,CLR,0.00,263.35,VWS V14.01,2013-05-15 14:29:00,
2013-05-15 09:34:00,71.5,64.3,29.93,SSE,151,0.0,14.0,78,0.00,,CLR,0.00,333.50,VWS V14.01,2013-05-15 14:34:00,
2013-05-15 09:39:00,71.7,64.5,29.93,SSE,155,12.0,16.0,78,0.00,,CLR,0.00,331.20,VWS V14.01,2013-05-15 14:39:00,
2013-05-15 09:44:00,71.8,64.2,29.93,South,188,5.0,14.0,77,0.00,,CLR,0.00,373.75,VWS V14.01,2013-05-15 14:44:00,
2013-05-15 09:49:00,72.0,64.4,29.93,South,172,12.0,14.0,77,0.00,,CLR,0.00,304.75,VWS V14.01,2013-05-15 14:49:00,
2013-05-15 09:54:00,72.0,64.4,29.93,SSW,198,8.0,17.0,77,0.00,,CLR,0.00,288.65,VWS V14.01,2013-05-15 14:54:00,
2013-05-15 09:59:00,71.7,64.5,29.93,SSW,212,6.0,18.0,78,0.00,,CLR,0.00,288.65,VWS V14.01,2013-05-15 14:59:00,
2013-05-15 10:05:00,71.8,64.6,29.93,South,177,5.0,14.0,78,0.00,,CLR,0.00,319.70,VWS V14.01,2013-05-15 15:05:00,
2013-05-15 10:10:00,72.2,64.6,29.93,South,180,2.0,17.0,77,0.00,,CLR,0.00,296.70,VWS V14.01,2013-05-15 15:10:00,
2013-05-15 10:15:00,72.0,64.8,29.93,South,178,3.0,15.0,78,0.00,,CLR,0.00,253.00,VWS V14.01,2013-05-15 15:15:00,
2013-05-15 10:20:00,72.0,64.8,29.93,South,173,4.0,14.0,78,0.00,,CLR,0.00,299.00,VWS V14.01,2013-05-15 15:20:00,
2013-05-15 10:25:00,72.2,65.0,29.93,SW,221,12.0,16.0,78,0.00,,CLR,0.00,338.10,VWS V14.01,2013-05-15 15:25:00,
2013-05-15 10:30:00,72.2,65.0,29.93,SSE,163,7.0,16.0,78,0.00,,CLR,0.00,405.95,VWS V14.01,2013-05-15 15:30:00,
2013-05-15 10:35:00,72.5,64.9,29.93,South,185,0.0,15.0,77,0.00,,CLR,0.00,418.60,VWS V14.01,2013-05-15 15:35:00,
2013-05-15 10:40:00,73.1,65.5,29.93,South,173,2.0,16.0,77,0.00,,CLR,0.00,400.20,VWS V14.01,2013-05-15 15:40:00,
2013-05-15 10:45:00,73.2,65.2,29.93,SW,229,12.0,21.0,76,0.00,,CLR,0.00,414.00,VWS V14.01,2013-05-15 15:45:00,
2013-05-15 10:50:00,73.2,65.2,29.93,SW,220,9.0,21.0,76,0.00,,CLR,0.00,363.40,VWS V14.01,2013-05-15 15:50:00,
2013-05-15 10:55:00,73.2,65.2,29.93,South,184,15.0,17.0,76,0.00,,CLR,0.00,376.05,VWS V14.01,2013-05-15 15:55:00,
2013-05-15 11:00:00,73.6,65.6,29.93,South,185,8.0,12.0,76,0.00,,BKN019,0.00,347.30,VWS V14.01,2013-05-15 16:00:00,
2013-05-15 11:05:00,73.6,65.6,29.93,SW,217,0.0,16.0,76,0.00,,BKN019,0.00,280.60,VWS V14.01,2013-05-15 16:05:00,
2013-05-15 11:10:00,73.6,65.6,29.93,WSW,244,6.0,14.0,76,0.00,,BKN019,0.00,282.90,VWS V14.01,2013-05-15 16:10:00,
2013-05-15 11:15:00,73.6,65.9,29.93,South,174,6.0,17.0,77,0.00,,BKN019,0.00,351.90,VWS V14.01,2013-05-15 16:15:00,
2013-05-15 11:20:00,73.8,65.4,29.93,South,182,0.0,14.0,75,0.00,,BKN019,0.00,309.35,VWS V14.01,2013-05-15 16:20:00,
2013-05-15 11:25:00,73.8,65.8,29.93,SW,227,11.0,17.0,76,0.00,,BKN019,0.00,355.35,VWS V14.01,2013-05-15 16:25:00,
2013-05-15 11:30:00,73.9,65.9,29.93,SSE,168,1.0,15.0,76,0.00,,BKN019,0.00,335.80,VWS V14.01,2013-05-15 16:30:00,
2013-05-15 11:35:00,73.9,65.9,29.93,SSW,194,2.0,15.0,76,0.00,,BKN019,0.00,290.95,VWS V14.01,2013-05-15 16:35:00,
2013-05-15 11:41:00,73.8,65.8,29.93,SSW,208,8.0,10.0,76,0.00,,BKN019,0.00,331.20,VWS V14.01,2013-05-15 16:41:00,
2013-05-15 11:46:00,73.8,65.8,29.94,South,180,0.0,0.0,76,0.00,,BKN019,0.00,279.45,VWS V14.01,2013-05-15 16:46:00,
2013-05-15 11:51:00,74.1,65.7,29.94,South,173,0.0,5.0,75,0.00,,BKN019,0.00,466.90,VWS V14.01,2013-05-15 16:51:00,
2013-05-15 11:56:00,74.3,65.9,29.94,SSW,198,10.0,15.0,75,0.00,,BKN019,0.00,404.80,VWS V14.01,2013-05-15 16:56:00,
2013-05-15 12:01:00,74.3,65.5,29.93,SSE,165,0.0,13.0,74,0.00,,OVC021,0.00,194.35,VWS V14.01,2013-05-15 17:01:00,
2013-05-15 12:06:00,73.8,65.4,29.93,SSE,161,12.0,12.0,75,0.00,,OVC021,0.00,138.00,VWS V14.01,2013-05-15 17:06:00,
2013-05-15 12:11:00,73.4,65.4,29.93,SW,217,0.0,6.0,76,0.00,,OVC021,0.00,173.65,VWS V14.01,2013-05-15 17:11:00,
2013-05-15 12:16:00,73.4,65.4,29.93,South,180,0.0,6.0,76,0.00,,OVC021,0.00,204.70,VWS V14.01,2013-05-15 17:16:00,
2013-05-15 12:21:00,73.2,65.2,29.93,South,182,12.0,17.0,76,0.00,,OVC021,0.00,220.80,VWS V14.01,2013-05-15 17:21:00,
2013-05-15 12:26:00,73.2,65.2,29.93,South,190,9.0,10.0,76,0.00,,OVC021,0.00,194.35,VWS V14.01,2013-05-15 17:26:00,
2013-05-15 12:31:00,73.2,65.6,29.93,South,175,0.0,0.0,77,0.00,,OVC021,0.00,143.75,VWS V14.01,2013-05-15 17:31:00,
2013-05-15 12:36:00,73.1,65.5,29.93,SSE,168,6.0,11.0,77,0.00,,OVC021,0.00,127.65,VWS V14.01,2013-05-15 17:36:00,
2013-05-15 12:41:00,73.1,65.5,29.93,SSW,202,0.0,6.0,77,0.00,,OVC021,0.00,117.30,VWS V14.01,2013-05-15 17:41:00,
2013-05-15 12:46:00,73.1,65.5,29.93,SSW,199,13.0,13.0,77,0.00,,OVC021,0.00,85.10,VWS V14.01,2013-05-15 17:46:00,
2013-05-15 12:51:00,73.1,65.5,29.93,South,176,0.0,9.0,77,0.00,,OVC021,0.00,77.05,VWS V14.01,2013-05-15 17:51:00,
2013-05-15 12:56:00,72.9,66.0,29.93,SSW,196,0.0,0.0,79,0.00,,OVC021,0.00,127.65,VWS V14.01,2013-05-15 17:56:00,
2013-05-15 13:02:00,72.4,66.2,29.93,SSW,205,0.0,3.0,81,0.00,,BKN023,0.00,123.05,VWS V14.01,2013-05-15 18:02:00,
2013-05-15 13:07:00,71.8,65.7,29.93,SSW,198,5.0,10.0,81,0.00,,BKN023,0.00,119.60,VWS V14.01,2013-05-15 18:07:00,
2013-05-15 13:12:00,71.7,66.3,29.93,South,182,0.0,0.0,83,0.00,,BKN023,0.00,125.35,VWS V14.01,2013-05-15 18:12:00,
2013-05-15 13:17:00,71.7,66.6,29.92,South,174,0.0,7.0,84,0.00,,BKN023,0.00,139.15,VWS V14.01,2013-05-15 18:17:00,
2013-05-15 13:22:00,71.5,66.4,29.92,South,178,0.0,9.0,84,0.00,,BKN023,0.00,123.05,VWS V14.01,2013-05-15 18:22:00,
2013-05-15 13:27:00,71.3,66.2,29.92,South,173,6.0,7.0,84,0.00,,BKN023,0.00,115.00,VWS V14.01,2013-05-15 18:27:00,
2013-05-15 13:32:00,71.2,66.1,29.92,SW,236,6.0,12.0,84,0.00,,BKN023,0.00,123.05,VWS V14.01,2013-05-15 18:32:00,
2013-05-15 13:37:00,70.8,66.1,29.92,SSW,205,5.0,6.0,85,0.00,,BKN023,0.00,104.65,VWS V14.01,2013-05-15 18:37:00,
2013-05-15 13:42:00,70.6,65.9,29.92,South,184,0.0,3.0,85,0.00,,BKN023,0.00,95.45,VWS V14.01,2013-05-15 18:42:00,
2013-05-15 13:47:00,70.6,66.2,29.92,South,178,0.0,0.0,86,0.00,,BKN023,0.00,62.10,VWS V14.01,2013-05-15 18:47:00,
2013-05-15 13:52:00,70.6,66.6,29.92,South,181,0.0,0.0,87,0.00,,BKN023,0.00,72.45,VWS V14.01,2013-05-15 18:52:00,
2013-05-15 13:57:00,70.6,66.6,29.92,South,180,0.0,5.0,87,0.00,,BKN023,0.00,87.40,VWS V14.01,2013-05-15 18:57:00,
2013-05-15 14:02:00,70.6,66.6,29.92,South,172,5.0,9.0,87,0.00,,OVC032,0.00,125.35,VWS V14.01,2013-05-15 19:02:00,
2013-05-15 14:07:00,70.6,66.6,29.92,SSE,161,5.0,10.0,87,0.00,,OVC032,0.00,131.10,VWS V14.01,2013-05-15 19:07:00,
2013-05-15 14:12:00,70.1,66.4,29.92,South,181,0.0,12.0,88,0.00,,OVC032,0.00,101.20,VWS V14.01,2013-05-15 19:12:00,
2013-05-15 14:17:00,70.0,66.6,29.92,South,170,0.0,13.0,89,0.00,,OVC032,0.00,208.15,VWS V14.01,2013-05-15 19:17:00,
2013-05-15 14:22:00,69.8,66.4,29.92,South,185,3.0,17.0,89,0.00,,OVC032,0.00,186.30,VWS V14.01,2013-05-15 19:22:00,
2013-05-15 14:28:00,69.6,66.2,29.92,SSE,167,0.0,16.0,89,0.00,,OVC032,0.00,165.60,VWS V14.01,2013-05-15 19:28:00,
2013-05-15 14:33:00,69.4,66.0,29.91,South,176,0.0,5.0,89,0.00,,OVC032,0.00,163.30,VWS V14.01,2013-05-15 19:33:00,
2013-05-15 14:38:00,69.4,66.0,29.91,SSW,192,4.0,8.0,89,0.00,,OVC032,0.00,147.20,VWS V14.01,2013-05-15 19:38:00,
2013-05-15 14:43:00,69.4,66.0,29.91,SSE,163,0.0,6.0,89,0.00,,OVC032,0.00,135.70,VWS V14.01,2013-05-15 19:43:00,
2013-05-15 14:48:00,69.4,66.0,29.91,South,173,0.0,0.0,89,0.00,,OVC032,0.00,146.05,VWS V14.01,2013-05-15 19:48:00,
2013-05-15 14:53:00,69.3,66.2,29.91,South,175,0.0,0.0,90,0.00,,OVC032,0.00,178.25,VWS V14.01,2013-05-15 19:53:00,
2013-05-15 14:58:00,69.3,66.2,29.91,SSE,165,0.0,5.0,90,0.00,,OVC032,0.00,197.80,VWS V14.01,2013-05-15 19:58:00,
2013-05-15 15:03:00,69.4,66.3,29.89,SSE,161,4.0,7.0,90,0.00,,-RA,0.00,213.90,VWS V14.01,2013-05-15 20:03:00,
2013-05-15 15:08:00,69.4,66.3,29.89,South,174,0.0,4.0,90,0.00,,-RA,0.00,106.95,VWS V14.01,2013-05-15 20:08:00,
2013-05-15 15:13:00,69.4,66.3,29.89,South,176,0.0,0.0,90,0.00,,-RA,0.00,170.20,VWS V14.01,2013-05-15 20:13:00,
2013-05-15 15:18:00,69.4,66.3,29.89,SSE,153,0.0,7.0,90,0.00,,-RA,0.00,178.25,VWS V14.01,2013-05-15 20:18:00,
2013-05-15 15:23:00,69.3,66.2,29.89,SSE,168,0.0,5.0,90,0.00,,-RA,0.00,112.70,VWS V14.01,2013-05-15 20:23:00,
2013-05-15 15:28:00,69.1,66.1,29.89,SSE,149,0.0,1.0,90,0.00,,-RA,0.00,175.95,VWS V14.01,2013-05-15 20:28:00,
2013-05-15 15:33:00,69.3,66.2,29.88,SSE,157,0.0,1.0,90,0.00,,-RA,0.00,157.55,VWS V14.01,2013-05-15 20:33:00,
2013-05-15 15:38:00,69.3,66.2,29.88,SE,138,0.0,6.0,90,0.00,,-RA,0.00,244.95,VWS V14.01,2013-05-15 20:38:00,
2013-05-15 15:43:00,69.4,66.3,29.88,SSE,153,0.0,5.0,90,0.00,,-RA,0.00,204.70,VWS V14.01,2013-05-15 20:43:00,
2013-05-15 15:48:00,69.3,66.2,29.88,SE,134,0.0,6.0,90,0.00,,-RA,0.00,258.75,VWS V14.01,2013-05-15 20:48:00,
2013-05-15 15:53:00,69.4,66.3,29.88,South,172,7.0,7.0,90,0.00,,-RA,0.00,442.75,VWS V14.01,2013-05-15 20:53:00,
2013-05-15 15:58:00,70.1,66.7,29.88,SE,143,0.0,5.0,89,0.00,,-RA,0.00,346.15,VWS V14.01,2013-05-15 20:58:00,
2013-05-15 16:04:00,70.0,66.6,29.88,SSE,163,0.0,12.0,89,0.00,,OVC110,0.00,274.85,VWS V14.01,2013-05-15 21:04:00,
2013-05-15 16:09:00,70.1,66.4,29.88,South,174,0.0,7.0,88,0.00,,OVC110,0.00,404.80,VWS V14.01,2013-05-15 21:09:00,
2013-05-15 16:14:00,70.5,66.8,29.88,SSE,159,0.0,6.0,88,0.00,,OVC110,0.00,405.95,VWS V14.01,2013-05-15 21:14:00,
2013-05-15 16:19:00,71.2,66.8,29.87,SSE,167,5.0,7.0,86,0.00,,OVC110,0.00,295.55,VWS V14.01,2013-05-15 21:19:00,
2013-05-15 16:24:00,71.2,66.5,29.87,South,176,3.0,10.0,85,0.00,,OVC110,0.00,210.45,VWS V14.01,2013-05-15 21:24:00,
2013-05-15 16:30:00,70.6,65.9,29.86,SSE,166,0.0,7.0,85,0.00,,OVC110,0.00,147.20,VWS V14.01,2013-05-15 21:30:00,
2013-05-15 16:35:00,70.3,65.6,29.86,SSE,158,3.0,11.0,85,0.00,,OVC110,0.00,210.45,VWS V14.01,2013-05-15 21:35:00,
2013-05-15 16:40:00,70.3,65.6,29.86,SE,146,0.0,11.0,85,0.00,,OVC110,0.00,246.10,VWS V14.01,2013-05-15 21:40:00,
2013-05-15 16:45:00,70.8,66.1,29.86,SSE,163,0.0,7.0,85,0.00,,OVC110,0.00,246.10,VWS V14.01,2013-05-15 21:45:00,
2013-05-15 16:50:00,71.7,65.9,29.86,SSE,163,0.0,6.0,82,0.00,,OVC110,0.00,194.35,VWS V14.01,2013-05-15 21:50:00,
2013-05-15 16:55:00,71.3,65.5,29.86,SSE,161,4.0,6.0,82,0.00,,OVC110,0.00,242.65,VWS V14.01,2013-05-15 21:55:00,
2013-05-15 17:00:00,71.3,65.5,29.85,SE,133,0.0,6.0,82,0.00,,OVC020,0.00,263.35,VWS V14.01,2013-05-15 22:00:00,
2013-05-15 17:06:00,71.5,65.7,29.85,South,171,0.0,1.0,82,0.00,,OVC020,0.00,131.10,VWS V14.01,2013-05-15 22:06:00,
2013-05-15 17:11:00,71.2,65.4,29.85,SSE,155,0.0,1.0,82,0.00,,OVC020,0.00,178.25,VWS V14.01,2013-05-15 22:11:00,
2013-05-15 17:16:00,71.2,65.8,29.84,South,171,0.0,3.0,83,0.00,,OVC020,0.00,170.20,VWS V14.01,2013-05-15 22:16:00,
2013-05-15 17:21:00,71.2,65.4,29.84,South,169,5.0,5.0,82,0.00,,OVC020,0.00,154.10,VWS V14.01,2013-05-15 22:21:00,
2013-05-15 17:26:00,71.2,65.4,29.84,South,173,2.0,7.0,82,0.00,,OVC020,0.00,117.30,VWS V14.01,2013-05-15 22:26:00,
2013-05-15 17:31:00,71.2,65.4,29.85,SSE,161,6.0,11.0,82,0.00,,OVC020,0.00,104.65,VWS V14.01,2013-05-15 22:31:00,
2013-05-15 17:36:00,71.2,65.1,29.85,SSE,161,3.0,7.0,81,0.01,,OVC020,0.01,139.15,VWS V14.01,2013-05-15 22:36:00,
2013-05-15 17:41:00,71.0,65.2,29.85,South,176,5.0,7.0,82,0.01,,OVC020,0.01,149.50,VWS V14.01,2013-05-15 22:41:00,
2013-05-15 17:46:00,70.8,65.7,29.84,SSE,158,0.0,5.0,84,0.01,,OVC020,0.01,141.45,VWS V14.01,2013-05-15 22:46:00,
2013-05-15 17:51:00,70.5,65.8,29.84,SSE,155,0.0,0.0,85,0.01,,OVC020,0.01,138.00,VWS V14.01,2013-05-15 22:51:00,
2013-05-15 17:56:00,70.5,66.1,29.84,SSE,148,3.0,4.0,86,0.01,,OVC020,0.01,93.15,VWS V14.01,2013-05-15 22:56:00,
2013-05-15 18:02:00,70.5,66.1,29.84,SSE,149,0.0,0.0,86,0.01,,OVC020,0.01,82.80,VWS V14.01,2013-05-15 23:02:00,
2013-05-15 18:07:00,70.5,66.1,29.84,SE,145,0.0,0.0,86,0.01,,OVC020,0.01,80.50,VWS V14.01,2013-05-15 23:07:00,
2013-05-15 18:12:00,70.3,65.9,29.84,SE,145,0.0,0.0,86,0.01,,OVC020,0.01,69.00,VWS V14.01,2013-05-15 23:12:00,
2013-05-15 18:17:00,70.3,65.9,29.83,SE,144,0.0,0.0,86,0.01,,OVC020,0.01,62.10,VWS V14.01,2013-05-15 23:17:00,
2013-05-15 18:22:00,70.3,65.9,29.83,SE,144,0.0,1.0,86,0.01,,OVC020,0.01,46.00,VWS V14.01,2013-05-15 23:22:00,
2013-05-15 18:27:00,70.1,65.7,29.83,SE,143,0.0,3.0,86,0.01,,OVC020,0.01,42.55,VWS V14.01,2013-05-15 23:27:00,
2013-05-15 18:32:00,70.1,65.7,29.82,SE,143,0.0,0.0,86,0.01,,-RA,0.01,46.00,VWS V14.01,2013-05-15 23:32:00,
2013-05-15 18:37:00,70.1,65.7,29.82,SE,142,0.0,4.0,86,0.00,,-RA,0.01,37.95,VWS V14.01,2013-05-15 23:37:00,
2013-05-15 18:42:00,70.1,65.7,29.82,SE,140,0.0,0.0,86,0.00,,-RA,0.01,28.75,VWS V14.01,2013-05-15 23:42:00,
2013-05-15 18:47:00,70.1,65.7,29.82,SE,140,0.0,0.0,86,0.00,,-RA,0.01,18.40,VWS V14.01,2013-05-15 23:47:00,
2013-05-15 18:52:00,70.1,66.1,29.82,SE,140,0.0,0.0,87,0.00,,-RA,0.01,10.35,VWS V14.01,2013-05-15 23:52:00,
2013-05-15 18:57:00,70.1,66.1,29.82,SE,140,0.0,0.0,87,0.00,,-RA,0.01,8.05,VWS V14.01,2013-05-15 23:57:00,
2013-05-15 19:02:00,70.1,66.1,29.83,SE,140,0.0,0.0,87,0.00,,-RA,0.01,5.75,VWS V14.01,2013-05-16 00:02:00,
2013-05-15 19:07:00,70.1,66.4,29.83,SE,140,0.0,0.0,88,0.00,,-RA,0.01,0.00,VWS V14.01,2013-05-16 00:07:00,
2013-05-15 19:13:00,70.0,66.3,29.83,SE,140,0.0,0.0,88,0.00,,-RA,0.01,0.00,VWS V14.01,2013-05-16 00:13:00,
2013-05-15 19:18:00,70.0,66.3,29.83,SE,140,0.0,0.0,88,0.00,,-RA,0.01,0.00,VWS V14.01,2013-05-16 00:18:00,
2013-05-15 19:23:00,70.0,66.6,29.83,SE,140,0.0,0.0,89,0.00,,-RA,0.01,0.00,VWS V14.01,2013-05-16 00:23:00,
2013-05-15 19:28:00,69.8,66.4,29.83,SE,140,0.0,0.0,89,0.00,,-RA,0.01,0.00,VWS V14.01,2013-05-16 00:28:00,
2013-05-15 19:33:00,69.8,66.4,29.83,SE,140,0.0,0.0,89,0.00,,RA,0.01,0.00,VWS V14.01,2013-05-16 00:33:00,
2013-05-15 19:38:00,69.8,66.7,29.83,SE,140,0.0,4.0,90,0.00,,RA,0.01,0.00,VWS V14.01,2013-05-16 00:38:00,
2013-05-15 19:43:00,69.6,66.5,29.83,SE,138,0.0,4.0,90,0.00,,RA,0.01,0.00,VWS V14.01,2013-05-16 00:43:00,
2013-05-15 19:48:00,69.4,66.3,29.83,SE,142,1.0,5.0,90,0.00,,RA,0.01,0.00,VWS V14.01,2013-05-16 00:48:00,
2013-05-15 19:54:00,69.3,66.2,29.83,SE,140,0.0,6.0,90,0.00,,RA,0.01,0.00,VWS V14.01,2013-05-16 00:54:00,
2013-05-15 19:59:00,69.1,66.4,29.83,SSE,153,19.0,19.0,91,0.00,,RA,0.01,0.00,VWS V14.01,2013-05-16 00:59:00,
2013-05-15 20:04:00,68.1,64.7,29.85,SSE,157,9.0,17.0,89,0.00,,RA,0.01,0.00,VWS V14.01,2013-05-16 01:04:00,
2013-05-15 20:09:00,67.1,64.1,29.85,SE,141,6.0,15.0,90,0.00,,RA,0.01,0.00,VWS V14.01,2013-05-16 01:09:00,
2013-05-15 20:14:00,66.1,63.1,29.85,South,171,3.0,13.0,90,0.00,,RA,0.01,0.00,VWS V14.01,2013-05-16 01:14:00,
2013-05-15 20:19:00,65.6,62.6,29.85,South,175,2.0,13.0,90,0.00,,RA,0.01,0.00,VWS V14.01,2013-05-16 01:19:00,
2013-05-15 20:24:00,65.3,62.3,29.85,SSE,158,1.0,7.0,90,0.00,,RA,0.01,0.00,VWS V14.01,2013-05-16 01:24:00,
2013-05-15 20:29:00,64.9,62.2,29.85,SSE,157,0.0,9.0,91,0.00,,RA,0.01,0.00,VWS V14.01,2013-05-16 01:29:00,
2013-05-15 20:34:00,64.8,62.1,29.85,SSE,165,0.0,5.0,91,0.00,,RA,0.01,0.00,VWS V14.01,2013-05-16 01:34:00,
2013-05-15 20:39:00,64.6,61.9,29.85,SSE,159,0.0,6.0,91,0.00,,RA,0.01,0.00,VWS V14.01,2013-05-16 01:39:00,
2013-05-15 20:44:00,64.5,62.1,29.85,SSE,158,0.0,10.0,92,0.00,,RA,0.01,0.00,VWS V14.01,2013-05-16 01:44:00,
2013-05-15 20:49:00,64.3,61.9,29.85,SE,134,3.0,6.0,92,0.00,,RA,0.01,0.00,VWS V14.01,2013-05-16 01:49:00,
2013-05-15 20:54:00,64.3,61.9,29.85,ESE,121,0.0,6.0,92,0.00,,RA,0.01,0.00,VWS V14.01,2013-05-16 01:54:00,
2013-05-15 21:00:00,64.1,62.0,29.85,ESE,123,4.0,6.0,93,0.00,,RA,0.01,0.00,VWS V14.01,2013-05-16 02:00:00,
2013-05-15 21:05:00,64.1,62.0,29.85,SE,129,5.0,9.0,93,0.00,,RA,0.01,0.00,VWS V14.01,2013-05-16 02:05:00,
2013-05-15 21:10:00,64.1,62.0,29.85,ESE,123,2.0,6.0,93,0.00,,RA,0.01,0.00,VWS V14.01,2013-05-16 02:10:00,
2013-05-15 21:15:00,64.1,62.0,29.84,ESE,109,0.0,9.0,93,0.00,,RA,0.01,0.00,VWS V14.01,2013-05-16 02:15:00,
2013-05-15 21:20:00,64.1,62.0,29.84,SE,125,0.0,8.0,93,0.00,,RA,0.01,0.00,VWS V14.01,2013-05-16 02:20:00,
2013-05-15 21:25:00,64.1,62.0,29.84,ESE,117,0.0,5.0,93,0.00,,RA,0.01,0.00,VWS V14.01,2013-05-16 02:25:00,
2013-05-15 21:30:00,64.1,62.3,29.83,SE,131,2.0,4.0,94,0.00,,RA,0.01,0.00,VWS V14.01,2013-05-16 02:30:00,
2013-05-15 21:35:00,64.1,62.3,29.83,ESE,102,0.0,6.0,94,0.00,,RA,0.01,0.00,VWS V14.01,2013-05-16 02:35:00,
2013-05-15 21:40:00,64.3,62.5,29.83,East,93,0.0,6.0,94,0.00,,RA,0.01,0.00,VWS V14.01,2013-05-16 02:40:00,
2013-05-15 21:45:00,64.3,62.5,29.81,ENE,74,3.0,7.0,94,0.00,,RA,0.01,0.00,VWS V14.01,2013-05-16 02:45:00,
2013-05-15 21:50:00,64.3,62.5,29.81,East,84,5.0,10.0,94,0.00,,RA,0.01,0.00,VWS V14.01,2013-05-16 02:50:00,
2013-05-15 21:55:00,64.3,62.5,29.81,ESE,103,0.0,6.0,94,0.00,,RA,0.01,0.00,VWS V14.01,2013-05-16 02:55:00,
2013-05-15 22:00:00,64.3,62.5,29.80,ESE,113,7.0,7.0,94,0.00,,RA,0.01,0.00,VWS V14.01,2013-05-16 03:00:00,
2013-05-15 22:06:00,64.5,62.7,29.80,East,95,6.0,7.0,94,0.00,,RA,0.01,0.00,VWS V14.01,2013-05-16 03:06:00,
2013-05-15 22:11:00,64.3,62.8,29.80,East,82,0.0,0.0,95,0.00,,RA,0.01,0.00,VWS V14.01,2013-05-16 03:11:00,
2013-05-15 22:16:00,64.5,63.0,29.80,SSE,153,0.0,1.0,95,0.00,,RA,0.01,0.00,VWS V14.01,2013-05-16 03:16:00,
2013-05-15 22:21:00,64.5,63.0,29.80,SE,126,2.0,4.0,95,0.00,,RA,0.01,0.00,VWS V14.01,2013-05-16 03:21:00,
2013-05-15 22:26:00,64.5,63.0,29.80,SE,136,3.0,7.0,95,0.00,,RA,0.01,0.00,VWS V14.01,2013-05-16 03:26:00,
2013-05-15 22:31:00,64.5,63.0,29.80,SSE,149,4.0,4.0,95,0.00,,-RA,0.01,0.00,VWS V14.01,2013-05-16 03:31:00,
2013-05-15 22:36:00,64.3,62.8,29.80,SSE,153,9.0,10.0,95,0.00,,-RA,0.01,0.00,VWS V14.01,2013-05-16 03:36:00,
2013-05-15 22:41:00,64.1,62.6,29.80,SSE,156,7.0,12.0,95,0.00,,-RA,0.01,0.00,VWS V14.01,2013-05-16 03:41:00,
2013-05-15 22:46:00,63.8,62.0,29.81,SSE,153,3.0,9.0,94,0.00,,-RA,0.01,0.00,VWS V14.01,2013-05-16 03:46:00,
2013-05-15 22:51:00,63.5,61.8,29.81,South,171,5.0,6.0,94,0.00,,-RA,0.01,0.00,VWS V14.01,2013-05-16 03:51:00,
2013-05-15 22:56:00,63.3,61.5,29.81,SSE,153,11.0,11.0,94,0.00,,-RA,0.01,0.00,VWS V14.01,2013-05-16 03:56:00,
2013-05-15 23:01:00,63.3,61.8,29.81,SSE,168,0.0,0.0,95,0.00,,-RA,0.01,0.00,VWS V14.01,2013-05-16 04:01:00,
2013-05-15 23:06:00,63.3,61.8,29.81,South,184,11.0,11.0,95,0.00,,-RA,0.01,0.00,VWS V14.01,2013-05-16 04:06:00,
2013-05-15 23:11:00,63.2,61.5,29.81,South,170,0.0,3.0,94,0.00,,-RA,0.01,0.00,VWS V14.01,2013-05-16 04:11:00,
2013-05-15 23:16:00,63.2,61.5,29.80,SSE,167,4.0,10.0,94,0.00,,-RA,0.01,0.00,VWS V14.01,2013-05-16 04:16:00,
2013-05-15 23:21:00,63.2,61.5,29.80,SSE,156,5.0,9.0,94,0.00,,-RA,0.01,0.00,VWS V14.01,2013-05-16 04:21:00,
2013-05-15 23:26:00,63.0,61.2,29.80,South,184,9.0,9.0,94,0.00,,-RA,0.01,0.00,VWS V14.01,2013-05-16 04:26:00,
2013-05-15 23:31:00,63.0,61.2,29.80,SSE,163,6.0,9.0,94,0.00,,OVC031,0.01,0.00,VWS V14.01,2013-05-16 04:31:00,
2013-05-15 23:36:00,62.8,61.0,29.80,SSE,166,5.0,7.0,94,0.00,,OVC031,0.01,0.00,VWS V14.01,2013-05-16 04:36:00,
2013-05-15 23:41:00,62.7,61.0,29.80,SSW,192,9.0,9.0,94,0.00,,OVC031,0.01,0.00,VWS V14.01,2013-05-16 04:41:00,
2013-05-15 23:46:00,62.7,61.0,29.79,South,187,0.0,0.0,94,0.00,,OVC031,0.01,0.00,VWS V14.01,2013-05-16 04:46:00,
2013-05-15 23:51:00,62.5,60.8,29.79,South,190,0.0,9.0,94,0.00,,OVC031,0.01,0.00,VWS V14.01,2013-05-16 04:51:00,
2013-05-15 23:56:00,62.4,60.7,29.79,South,174,10.0,10.0,94,0.00,,OVC031,0.01,0.00,VWS V14.01,2013-05-16 04:56:00,